Time;durP1;ratioP1;P1;durP2;ratioP2;P2;SDS_P1;SDS_P2;PMS_P1;PMS_P2;Temp;Humidity;BMP_temperature;BMP_pressure;BME280_temperature;BME280_humidity;BME280_pressure;Samples;Min_cycle;Max_cycle;Signal;HPM_P1;HPM_P2
2022/10/28 00:08:23;;;;;;;1.77;1.30;;;;;;;;;;21039509;28;20277;-84
2022/10/28 00:18:24;;;;;;;2.30;1.50;;;;;;;;;;21024530;28;20269;-84
2022/10/28 00:28:26;;;;;;;1.77;1.20;;;;;;;;;;20901602;28;20233;-84
2022/10/28 00:38:29;;;;;;;2.03;1.30;;;15.40;99.90;;;;;;20873968;28;20267;-83
2022/10/28 00:48:31;;;;;;;1.83;1.20;;;;;;;;;;20891607;28;20256;-83
2022/10/28 00:58:33;;;;;;;2.70;1.43;;;;;;;;;;20914633;28;20213;-81
2022/10/28 01:08:35;;;;;;;2.30;1.40;;;;;;;;;;20936995;28;20236;-80
2022/10/28 01:18:36;;;;;;;1.53;1.03;;;;;;;;;;20950149;28;20201;-82
2022/10/28 01:28:51;;;;;;;4.67;1.53;;;;;;;;;;20968267;28;20634;-83
2022/10/28 01:39:00;;;;;;;2.63;1.40;;;15.30;99.90;;;;;;20953008;28;20258;-83
2022/10/28 01:49:10;;;;;;;2.33;1.30;;;15.40;99.90;;;;;;21000050;28;20229;-83
2022/10/28 01:59:14;;;;;;;2.40;1.40;;;;;;;;;;20967152;28;20217;-83
2022/10/28 02:09:22;;;;;;;1.70;1.10;;;;;;;;;;20966727;28;20197;-84
2022/10/28 02:19:35;;;;;;;1.67;1.03;;;;;;;;;;20966508;28;20225;-84
2022/10/28 02:29:40;;;;;;;3.10;1.40;;;;;;;;;;20965064;28;20212;-83
2022/10/28 02:39:46;;;;;;;5.53;1.23;;;;;;;;;;21024614;28;20221;-83
2022/10/28 02:49:54;;;;;;;1.77;0.90;;;15.30;99.90;;;;;;20945737;28;20635;-82
2022/10/28 02:59:56;;;;;;;2.27;1.23;;;;;;;;;;21006327;28;20213;-81
2022/10/28 03:09:58;;;;;;;3.07;1.07;;;;;;;;;;21011313;28;20216;-82
2022/10/28 03:20:00;;;;;;;2.60;1.20;;;;;;;;;;21060065;28;20228;-81
2022/10/28 03:30:01;;;;;;;2.47;1.10;;;;;;;;;;21042473;28;20212;-83
2022/10/28 03:40:06;;;;;;;4.00;1.20;;;;;;;;;;21011311;28;20250;-84
2022/10/28 03:50:09;;;;;;;4.80;1.30;;;;;;;;;;21005827;28;20599;-82
2022/10/28 04:00:11;;;;;;;1.80;1.00;;;;;;;;;;20993522;28;20224;-83
2022/10/28 04:10:15;;;;;;;3.87;1.10;;;;;;;;;;20971012;28;20270;-83
2022/10/28 04:20:17;;;;;;;2.33;0.93;;;15.00;99.90;;;;;;20938425;28;20288;-83
2022/10/28 04:30:19;;;;;;;4.50;0.93;;;;;;;;;;20971739;28;20205;-83
2022/10/28 04:40:20;;;;;;;6.90;1.57;;;;;;;;;;20967047;28;20298;-84
2022/10/28 04:50:22;;;;;;;1.67;1.10;;;;;;;;;;20965175;28;20217;-84
2022/10/28 05:00:24;;;;;;;4.20;1.20;;;;;;;;;;20954506;28;20278;-85
2022/10/28 05:10:26;;;;;;;1.97;1.10;;;;;;;;;;20897252;28;20570;-82
2022/10/28 05:20:30;;;;;;;4.03;1.27;;;;;;;;;;20909326;28;20274;-82
2022/10/28 05:30:33;;;;;;;2.00;1.20;;;;;;;;;;20815680;22;20231;-69
2022/10/28 05:40:34;;;;;;;2.27;1.30;;;;;;;;;;20701747;28;20230;-66
2022/10/28 05:50:36;;;;;;;2.13;1.37;;;;;;;;;;20716939;28;20211;-67
2022/10/28 06:00:38;;;;;;;3.60;1.30;;;;;;;;;;20701127;28;20227;-67
2022/10/28 06:10:40;;;;;;;3.63;1.33;;;14.70;99.90;;;;;;20694205;28;20698;-67
2022/10/28 06:20:42;;;;;;;1.83;1.10;;;;;;;;;;20715312;28;20693;-67
2022/10/28 06:30:44;;;;;;;3.60;1.00;;;;;;;;;;20726841;28;20266;-67
2022/10/28 06:40:46;;;;;;;1.60;1.10;;;;;;;;;;20712783;28;20273;-66
2022/10/28 06:50:49;;;;;;;2.57;1.57;;;;;;;;;;20729697;28;20285;-66
2022/10/28 07:00:51;;;;;;;1.83;1.00;;;;;;;;;;20705386;28;20254;-66
2022/10/28 07:10:57;;;;;;;2.63;1.20;;;14.70;99.90;;;;;;20705181;28;20281;-66
2022/10/28 07:20:59;;;;;;;3.27;1.27;;;;;;;;;;20711310;28;20219;-66
2022/10/28 07:31:02;;;;;;;1.90;1.13;;;;;;;;;;20726781;28;20281;-66
2022/10/28 07:41:08;;;;;;;2.33;1.40;;;;;;;;;;20709870;28;20582;-66
2022/10/28 07:51:12;;;;;;;3.43;1.23;;;14.60;99.90;;;;;;20709131;28;20199;-67
2022/10/28 08:01:16;;;;;;;2.53;1.20;;;14.60;99.90;;;;;;20724065;28;20253;-66
2022/10/28 08:11:19;;;;;;;3.30;1.40;;;;;;;;;;20718328;28;20211;-66
2022/10/28 08:21:21;;;;;;;2.67;1.20;;;;;;;;;;20707131;28;20227;-67
2022/10/28 08:31:22;;;;;;;2.70;1.30;;;;;;;;;;20698047;28;20227;-66
2022/10/28 08:41:38;;;;;;;3.53;1.30;;;;;;;;;;20706049;28;20227;-67
2022/10/28 08:51:44;;;;;;;2.70;1.10;;;;;;;;;;20700338;28;20238;-67
2022/10/28 09:02:07;;;;;;;1.80;1.10;;;15.00;99.90;;;;;;20715393;28;20285;-66
2022/10/28 09:12:18;;;;;;;2.63;1.13;;;15.10;99.90;;;;;;20705284;28;20211;-67
2022/10/28 09:22:56;;;;;;;2.43;1.30;;;15.20;99.90;;;;;;20701094;28;20281;-66
2022/10/28 09:33:01;;;;;;;3.20;1.30;;;15.40;99.90;;;;;;20603038;28;20235;-66
2022/10/28 09:43:27;;;;;;;3.30;1.23;;;15.70;99.90;;;;;;20638300;28;20792;-66
2022/10/28 09:53:50;;;;;;;5.93;1.20;;;15.80;99.90;;;;;;20637805;28;20212;-66
2022/10/28 10:03:52;;;;;;;1.90;1.00;;;;;;;;;;20892985;22;20234;-83
2022/10/28 10:13:54;;;;;;;46.63;7.70;;;;;;;;;;20820524;28;20245;-84
2022/10/28 10:23:58;;;;;;;2.80;1.30;;;;;;;;;;20803540;28;20820;-83
2022/10/28 10:34:00;;;;;;;3.17;1.10;;;;;;;;;;20807872;28;20215;-83
2022/10/28 10:44:22;;;;;;;2.77;1.03;;;;;;;;;;20814354;28;20230;-83
2022/10/28 10:54:25;;;;;;;4.93;1.17;;;;;;;;;;20815627;28;20202;-83
2022/10/28 11:04:29;;;;;;;2.30;1.17;;;;;;;;;;20798132;28;20222;-83
2022/10/28 11:25:58;;;;;;;2.53;1.00;;;;;;;;;;20845245;22;20234;-66
2022/10/28 11:36:15;;;;;;;3.80;0.80;;;18.80;99.90;;;;;;20784969;28;20215;-67
2022/10/28 11:46:17;;;;;;;2.57;0.97;;;;;;;;;;20777832;28;20225;-66
2022/10/28 11:56:28;;;;;;;4.27;1.20;;;;;;;;;;20785241;28;20218;-67
2022/10/28 12:06:53;;;;;;;2.83;1.00;;;;;;;;;;20783226;28;20408;-68
2022/10/28 12:17:12;;;;;;;2.93;1.07;;;;;;;;;;20868899;28;20224;-67
2022/10/28 12:27:27;;;;;;;4.20;1.10;;;;;;;;;;20766595;28;20278;-68
2022/10/28 12:37:38;;;;;;;1.20;0.80;;;19.80;99.90;;;;;;20777883;28;20231;-68
2022/10/28 12:47:59;;;;;;;1.70;0.70;;;;;;;;;;20751975;28;20322;-68
2022/10/28 12:58:20;;;;;;;2.97;1.20;;;;;;;;;;20713633;28;20223;-68
2022/10/28 13:08:29;;;;;;;2.30;0.93;;;;;;;;;;20713974;28;20577;-68
2022/10/28 13:19:01;;;;;;;3.67;0.93;;;;;;;;;;20713573;28;20303;-68
2022/10/28 13:29:06;;;;;;;2.93;1.00;;;20.00;99.90;;;;;;20754390;28;20774;-68
2022/10/28 13:39:23;;;;;;;1.33;0.70;;;20.10;99.90;;;;;;20819940;28;20231;-68
2022/10/28 13:49:26;;;;;;;3.33;0.80;;;;;;;;;;20823749;28;20221;-68
2022/10/28 13:59:30;;;;;;;5.00;0.80;;;;;;;;;;20738335;28;20230;-68
2022/10/28 14:09:33;;;;;;;1.87;1.00;;;;;;;;;;20785291;28;20611;-68
2022/10/28 14:19:35;;;;;;;4.93;1.17;;;;;;;;;;20786372;28;20281;-67
2022/10/28 14:29:55;;;;;;;1.90;0.90;;;;;;;;;;20837688;28;20703;-67
2022/10/28 14:40:02;;;;;;;1.87;0.70;;;20.20;99.90;;;;;;20862218;28;20279;-68
2022/10/28 14:50:10;;;;;;;3.87;1.00;;;;;;;;;;20765328;28;20583;-67
2022/10/28 15:00:19;;;;;;;1.73;0.77;;;;;;;;;;20793593;28;20626;-67
2022/10/28 15:10:21;;;;;;;4.63;1.20;;;;;;;;;;20806170;28;20208;-67
2022/10/28 15:20:25;;;;;;;3.53;0.80;;;19.80;99.90;;;;;;20787938;28;20808;-67
2022/10/28 15:30:27;;;;;;;2.23;0.97;;;;;;;;;;20721261;28;20221;-67
2022/10/28 15:40:33;;;;;;;4.23;0.90;;;;;;;;;;20814901;28;20219;-66
2022/10/28 15:50:35;;;;;;;4.17;1.27;;;;;;;;;;20775657;28;20217;-66
2022/10/28 16:00:54;;;;;;;1.87;0.93;;;;;;;;;;20834043;28;20231;-66
2022/10/28 16:11:00;;;;;;;4.07;1.40;;;19.20;99.90;;;;;;20864175;28;20229;-66
2022/10/28 16:21:04;;;;;;;4.87;1.47;;;;;;;;;;20785041;28;20592;-67
2022/10/28 16:31:14;;;;;;;3.73;0.90;;;19.10;99.90;;;;;;20828588;28;20272;-67
2022/10/28 16:41:17;;;;;;;3.23;1.30;;;19.10;99.90;;;;;;20747514;28;20912;-67
2022/10/28 16:51:19;;;;;;;2.53;1.00;;;;;;;;;;20817880;28;20214;-67
2022/10/28 17:01:21;;;;;;;5.27;1.40;;;17.20;99.90;;;;;;20894889;28;20231;-66
2022/10/28 17:11:24;;;;;;;3.63;1.37;;;;;;;;;;20874128;28;20218;-66
2022/10/28 17:21:26;;;;;;;2.63;1.00;;;;;;;;;;20821151;28;20741;-66
2022/10/28 17:31:28;;;;;;;3.27;1.43;;;;;;;;;;20819068;22;20227;-74
2022/10/28 17:41:29;;;;;;;3.17;1.30;;;;;;;;;;20889565;28;20218;-74
2022/10/28 17:51:31;;;;;;;3.90;1.53;;;;;;;;;;20892810;28;20689;-76
2022/10/28 18:01:33;;;;;;;3.27;1.20;;;;;;;;;;20874620;28;20230;-76
2022/10/28 18:11:36;;;;;;;2.90;1.10;;;;;;;;;;20802166;28;20206;-76
2022/10/28 18:21:38;;;;;;;4.17;1.00;;;;;;;;;;20817933;28;20211;-76
2022/10/28 18:31:42;;;;;;;3.37;1.40;;;;;;;;;;20820662;28;20226;-76
2022/10/28 18:41:44;;;;;;;2.83;1.13;;;;;;;;;;20854170;28;20584;-76
2022/10/28 18:51:46;;;;;;;4.83;1.80;;;;;;;;;;20899585;28;20199;-76
2022/10/28 19:01:47;;;;;;;3.77;1.57;;;;;;;;;;20900242;28;20580;-76
2022/10/28 19:11:49;;;;;;;4.30;1.90;;;;;;;;;;20882404;28;20214;-76
2022/10/28 19:21:51;;;;;;;3.30;1.73;;;;;;;;;;20881884;28;20928;-76
2022/10/28 19:31:53;;;;;;;4.50;1.50;;;;;;;;;;20886468;28;20697;-76
2022/10/28 19:41:54;;;;;;;4.43;1.60;;;;;;;;;;20891683;28;20281;-76
2022/10/28 19:51:56;;;;;;;3.43;1.50;;;;;;;;;;20845327;28;20633;-74
2022/10/28 20:01:59;;;;;;;4.53;1.27;;;;;;;;;;20896518;28;20226;-75
2022/10/28 20:12:01;;;;;;;3.27;2.00;;;;;;;;;;20887715;28;20583;-74
2022/10/28 20:22:04;;;;;;;2.37;1.40;;;;;;;;;;20874649;28;20260;-74
2022/10/28 20:32:06;;;;;;;4.57;1.60;;;;;;;;;;20892169;28;20227;-73
2022/10/28 20:42:08;;;;;;;3.03;1.43;;;;;;;;;;20832171;28;20230;-75
2022/10/28 20:52:15;;;;;;;2.30;1.47;;;;;;;;;;20822761;28;20268;-75
2022/10/28 21:02:17;;;;;;;3.83;1.47;;;;;;;;;;20876309;28;20291;-76
2022/10/28 21:12:19;;;;;;;6.20;1.67;;;;;;;;;;20915675;28;20264;-75
2022/10/28 21:22:20;;;;;;;3.17;1.50;;;;;;;;;;20879475;28;20248;-74
2022/10/28 21:32:22;;;;;;;5.00;1.30;;;;;;;;;;20900674;28;20280;-74
2022/10/28 21:42:24;;;;;;;2.23;1.40;;;;;;;;;;20908884;28;20632;-74
2022/10/28 21:52:26;;;;;;;4.00;1.50;;;;;;;;;;20912159;28;20228;-75
2022/10/28 22:02:28;;;;;;;3.20;1.80;;;;;;;;;;20910841;28;20733;-74
2022/10/28 22:12:29;;;;;;;3.00;1.50;;;;;;;;;;20902195;28;20209;-75
2022/10/28 22:22:31;;;;;;;3.37;1.40;;;;;;;;;;20900977;28;20223;-74
2022/10/28 22:32:33;;;;;;;2.80;1.40;;;;;;;;;;20909793;28;20295;-74
2022/10/28 22:42:36;;;;;;;2.77;1.60;;;;;;;;;;20906911;28;20681;-74
2022/10/28 22:52:38;;;;;;;6.50;1.73;;;;;;;;;;20881953;28;20292;-74
2022/10/28 23:02:39;;;;;;;4.03;1.57;;;;;;;;;;20823529;28;20218;-75
2022/10/28 23:12:41;;;;;;;3.53;1.50;;;;;;;;;;20856647;28;20279;-74
2022/10/28 23:22:43;;;;;;;5.93;1.60;;;;;;;;;;20905532;28;20222;-74
2022/10/28 23:32:45;;;;;;;3.80;1.33;;;;;;;;;;20910080;22;20724;-68
2022/10/28 23:42:47;;;;;;;2.80;1.10;;;;;;;;;;20838274;28;20304;-68
2022/10/28 23:52:52;;;;;;;2.80;1.07;;;;;;;;;;20855910;28;20689;-68
